Time;durP1;ratioP1;P1;durP2;ratioP2;P2;SDS_P1;SDS_P2;PMS_P1;PMS_P2;Temp;Humidity;BMP_temperature;BMP_pressure;BME280_temperature;BME280_humidity;BME280_pressure;Samples;Min_cycle;Max_cycle;Signal;HPM_P1;HPM_P2
2022/01/15 00:00:18;;;;;;;18.67;11.73;;;5.80;99.90;;;;;;5098681;28;20259;-75
2022/01/15 00:02:46;;;;;;;21.40;12.20;;;5.70;99.90;;;;;;5091743;28;20313;-75
2022/01/15 00:05:12;;;;;;;20.87;13.20;;;5.70;99.90;;;;;;5095022;28;20692;-76
2022/01/15 00:07:42;;;;;;;21.27;13.00;;;5.70;99.90;;;;;;5096927;28;20203;-78
2022/01/15 00:10:08;;;;;;;22.20;12.23;;;5.70;99.90;;;;;;5093787;28;20247;-77
2022/01/15 00:12:40;;;;;;;19.97;12.30;;;5.70;99.90;;;;;;5094953;28;20301;-77
2022/01/15 00:15:08;;;;;;;19.80;11.30;;;5.70;99.90;;;;;;5092382;28;20188;-78
2022/01/15 00:17:50;;;;;;;21.60;13.27;;;5.70;99.90;;;;;;5094896;28;20198;-69
2022/01/15 00:20:23;;;;;;;20.27;11.87;;;5.70;99.90;;;;;;5095579;28;21636;-78
2022/01/15 00:22:50;;;;;;;20.50;12.13;;;5.60;99.90;;;;;;5084903;28;20188;-75
2022/01/15 00:25:18;;;;;;;20.53;12.23;;;5.70;99.90;;;;;;5091646;28;20183;-75
2022/01/15 00:27:46;;;;;;;21.37;12.20;;;5.60;99.90;;;;;;5112320;27;20206;-75
2022/01/15 00:30:14;;;;;;;22.23;12.20;;;5.70;99.90;;;;;;5092549;28;20176;-71
2022/01/15 00:32:40;;;;;;;20.37;12.23;;;5.70;99.90;;;;;;5091833;28;20219;-72
2022/01/15 00:35:10;;;;;;;22.70;12.87;;;5.70;99.90;;;;;;5088011;28;20206;-76
2022/01/15 00:37:39;;;;;;;20.07;12.43;;;5.60;99.90;;;;;;5089917;28;20207;-74
2022/01/15 00:40:08;;;;;;;20.67;12.10;;;5.60;99.90;;;;;;5091192;28;20192;-72
2022/01/15 00:42:39;;;;;;;19.90;11.23;;;5.60;99.90;;;;;;5093599;28;20185;-70
2022/01/15 00:45:13;;;;;;;21.60;11.80;;;5.60;99.90;;;;;;5092003;28;20179;-71
2022/01/15 00:47:39;;;;;;;21.77;12.03;;;5.60;99.90;;;;;;5093008;28;20215;-73
2022/01/15 00:50:07;;;;;;;24.13;12.87;;;5.60;99.90;;;;;;5088522;28;20206;-76
2022/01/15 00:52:35;;;;;;;22.57;12.07;;;5.60;99.90;;;;;;5093911;28;20190;-73
2022/01/15 00:55:02;;;;;;;20.90;11.30;;;5.50;99.90;;;;;;5098774;28;20212;-77
2022/01/15 00:57:28;;;;;;;19.67;11.13;;;5.50;99.90;;;;;;5094543;28;20199;-74
2022/01/15 00:59:55;;;;;;;19.03;11.50;;;5.50;99.90;;;;;;5092985;28;20180;-73
2022/01/15 01:02:26;;;;;;;22.27;11.50;;;5.50;99.90;;;;;;5095671;28;20214;-74
2022/01/15 01:04:51;;;;;;;19.70;10.87;;;5.50;99.90;;;;;;5098410;28;20183;-73
2022/01/15 01:07:19;;;;;;;19.57;10.43;;;5.40;99.90;;;;;;5102685;28;20261;-72
2022/01/15 01:20:35;;;;;;;18.17;9.67;;;5.40;99.90;;;;;;5093808;28;20304;-74
2022/01/15 01:23:01;;;;;;;18.60;9.67;;;5.30;99.90;;;;;;5095375;28;20183;-76
2022/01/15 01:25:33;;;;;;;16.97;9.80;;;5.30;99.90;;;;;;5096060;28;20175;-77
2022/01/15 01:28:13;;;;;;;18.40;9.10;;;5.30;99.90;;;;;;5091203;28;20190;-76
2022/01/15 01:30:50;;;;;;;16.17;8.97;;;5.30;99.90;;;;;;5105789;28;20226;-73
2022/01/15 01:35:48;;;;;;;14.63;8.33;;;5.30;99.90;;;;;;5094144;28;20187;-76
2022/01/15 01:38:29;;;;;;;14.83;8.93;;;5.30;99.90;;;;;;5089038;28;20189;-70
2022/01/15 01:40:59;;;;;;;14.50;8.63;;;5.20;99.90;;;;;;5087719;28;20189;-76
2022/01/15 01:46:14;;;;;;;17.07;9.67;;;5.20;99.90;;;;;;5093015;28;20192;-76
2022/01/15 01:48:42;;;;;;;14.20;8.57;;;5.20;99.90;;;;;;5094534;28;20180;-76
2022/01/15 01:51:20;;;;;;;17.53;8.93;;;5.20;99.90;;;;;;5095277;28;20180;-76
2022/01/15 01:53:45;;;;;;;16.73;9.07;;;5.10;99.90;;;;;;5096018;28;20190;-73
2022/01/15 01:56:13;;;;;;;14.23;8.57;;;5.10;99.90;;;;;;5087626;28;20172;-73
2022/01/15 01:58:39;;;;;;;16.33;9.57;;;5.10;99.90;;;;;;5092783;28;20196;-75
2022/01/15 02:01:04;;;;;;;17.97;10.03;;;5.10;99.90;;;;;;5092608;28;20244;-70
2022/01/15 02:03:30;;;;;;;16.60;8.83;;;5.00;99.90;;;;;;5098900;28;20181;-76
2022/01/15 02:05:56;;;;;;;15.50;9.07;;;5.00;99.90;;;;;;5095671;28;20216;-73
2022/01/15 02:08:21;;;;;;;16.13;8.97;;;5.00;99.90;;;;;;5104257;27;20180;-76
2022/01/15 02:10:47;;;;;;;15.60;8.40;;;5.00;99.90;;;;;;5090279;28;20215;-73
2022/01/15 02:13:13;;;;;;;16.57;8.77;;;5.00;99.90;;;;;;5092381;28;20229;-70
2022/01/15 02:15:39;;;;;;;15.03;8.10;;;5.00;99.90;;;;;;5086291;28;20180;-76
2022/01/15 02:18:05;;;;;;;13.93;8.43;;;5.00;99.90;;;;;;5092223;28;20181;-71
2022/01/15 02:25:57;;;;;;;13.07;7.80;;;4.90;99.90;;;;;;5092132;28;20254;-74
2022/01/15 02:28:31;;;;;;;13.50;7.53;;;4.90;99.90;;;;;;5099765;28;20179;-73
2022/01/15 02:31:00;;;;;;;14.73;7.70;;;4.90;99.90;;;;;;5102258;28;20203;-74
2022/01/15 02:33:26;;;;;;;15.13;8.60;;;4.80;99.90;;;;;;5093267;28;20214;-76
2022/01/15 02:35:53;;;;;;;14.63;8.97;;;4.80;99.90;;;;;;5092881;28;20222;-77
2022/01/15 02:38:19;;;;;;;13.20;8.07;;;4.80;99.90;;;;;;5097357;27;20260;-71
2022/01/15 02:40:45;;;;;;;17.33;9.00;;;4.80;99.90;;;;;;5103805;28;20266;-71
2022/01/15 02:43:19;;;;;;;17.93;9.57;;;4.70;99.90;;;;;;5106761;27;20263;-76
2022/01/15 02:46:00;;;;;;;15.17;8.27;;;4.70;99.90;;;;;;5083823;28;20235;-76
2022/01/15 02:48:28;;;;;;;12.63;7.93;;;4.70;99.90;;;;;;5096865;28;20202;-71
2022/01/15 02:50:56;;;;;;;14.37;7.50;;;4.60;99.90;;;;;;5105967;27;20181;-70
2022/01/15 02:53:22;;;;;;;15.20;8.53;;;4.60;99.90;;;;;;5094564;28;20212;-77
2022/01/15 02:55:52;;;;;;;12.43;7.50;;;4.60;99.90;;;;;;5096056;28;20210;-76
2022/01/15 02:58:20;;;;;;;15.20;8.73;;;4.60;99.90;;;;;;5093130;28;20248;-71
2022/01/15 03:00:47;;;;;;;13.80;7.60;;;4.60;99.90;;;;;;5086958;28;20188;-72
2022/01/15 03:03:13;;;;;;;12.40;7.53;;;4.60;99.90;;;;;;5094020;28;20348;-76
2022/01/15 03:05:41;;;;;;;11.43;7.30;;;4.60;99.90;;;;;;5091934;28;20193;-76
2022/01/15 03:08:07;;;;;;;10.53;6.63;;;4.60;99.90;;;;;;5093174;28;20183;-76
2022/01/15 03:10:33;;;;;;;11.03;6.77;;;4.60;99.90;;;;;;5094218;28;20180;-77
2022/01/15 03:13:00;;;;;;;13.13;7.53;;;4.60;99.90;;;;;;5098277;28;20275;-72
2022/01/15 03:15:28;;;;;;;11.10;7.17;;;4.50;99.90;;;;;;5091725;28;20309;-76
2022/01/15 03:17:54;;;;;;;12.40;7.83;;;4.50;99.90;;;;;;5102664;28;20192;-76
2022/01/15 03:20:22;;;;;;;13.10;7.03;;;4.50;99.90;;;;;;5092993;28;20186;-77
2022/01/15 03:22:50;;;;;;;13.97;7.57;;;4.50;99.90;;;;;;5100061;28;20176;-75
2022/01/15 03:25:16;;;;;;;10.93;6.93;;;4.50;99.90;;;;;;5091577;28;20180;-72
2022/01/15 03:27:42;;;;;;;13.30;7.97;;;4.50;99.90;;;;;;5100244;28;20268;-75
2022/01/15 03:30:11;;;;;;;13.10;7.80;;;4.50;99.90;;;;;;5089928;28;20558;-75
2022/01/15 03:32:42;;;;;;;11.47;7.20;;;4.50;99.90;;;;;;5089379;28;20228;-76
2022/01/15 03:35:10;;;;;;;12.27;7.37;;;4.50;99.90;;;;;;5091868;28;20177;-74
2022/01/15 03:37:38;;;;;;;14.10;8.27;;;4.40;99.90;;;;;;5089562;28;20186;-72
2022/01/15 03:40:06;;;;;;;11.93;7.50;;;4.40;99.90;;;;;;5090597;28;20183;-77
2022/01/15 03:42:32;;;;;;;11.90;7.10;;;4.40;99.90;;;;;;5096331;28;20523;-75
2022/01/15 03:44:57;;;;;;;11.50;6.80;;;4.40;99.90;;;;;;5095715;28;20266;-71
2022/01/15 03:47:23;;;;;;;11.47;7.27;;;4.40;99.90;;;;;;5090687;28;20288;-77
2022/01/15 03:49:49;;;;;;;10.57;6.80;;;4.30;99.90;;;;;;5097772;28;20190;-75
2022/01/15 03:52:16;;;;;;;12.50;7.37;;;4.30;99.90;;;;;;5092694;28;20172;-76
2022/01/15 03:54:42;;;;;;;12.50;8.07;;;4.30;99.90;;;;;;5092391;28;20270;-74
2022/01/15 03:57:10;;;;;;;10.20;7.03;;;4.30;99.90;;;;;;5096665;28;20267;-76
2022/01/15 03:59:39;;;;;;;11.00;7.17;;;4.30;99.90;;;;;;5091141;28;20180;-76
2022/01/15 04:02:06;;;;;;;10.60;6.73;;;4.30;99.90;;;;;;5093005;28;20184;-73
2022/01/15 04:04:32;;;;;;;10.30;6.30;;;4.30;99.90;;;;;;5084042;28;20207;-76
2022/01/15 04:06:58;;;;;;;8.93;5.60;;;4.30;99.90;;;;;;5093631;28;20242;-73
2022/01/15 04:09:23;;;;;;;8.07;5.60;;;4.30;99.90;;;;;;5098873;28;20208;-74
2022/01/15 04:11:49;;;;;;;6.80;4.83;;;4.30;99.90;;;;;;5085106;28;20199;-73
2022/01/15 04:14:15;;;;;;;7.30;5.57;;;4.20;99.90;;;;;;5091275;28;20249;-74
2022/01/15 04:16:43;;;;;;;7.90;5.33;;;4.20;99.90;;;;;;5093037;28;20180;-71
2022/01/15 04:19:09;;;;;;;7.20;5.17;;;4.20;99.90;;;;;;5100952;28;20198;-76
2022/01/15 04:21:36;;;;;;;7.57;5.67;;;4.20;99.90;;;;;;5088263;28;20271;-69
2022/01/15 04:24:04;;;;;;;6.20;4.80;;;4.10;99.90;;;;;;5088300;28;20184;-71
2022/01/15 04:26:30;;;;;;;7.93;5.23;;;4.10;99.90;;;;;;5087880;28;20473;-75
2022/01/15 04:29:04;;;;;;;7.60;5.30;;;4.10;99.90;;;;;;5092066;28;20259;-73
2022/01/15 04:31:38;;;;;;;7.37;5.03;;;4.10;99.90;;;;;;5091973;28;20184;-75
2022/01/15 04:34:08;;;;;;;6.57;4.67;;;4.10;99.90;;;;;;5090520;28;20179;-75
2022/01/15 04:36:36;;;;;;;6.20;4.40;;;4.10;99.90;;;;;;5084220;28;20271;-74
2022/01/15 04:39:02;;;;;;;7.43;4.97;;;4.10;99.90;;;;;;5094080;28;20641;-74
2022/01/15 04:41:32;;;;;;;7.17;4.87;;;4.10;99.90;;;;;;5084348;28;20512;-76
2022/01/15 04:43:58;;;;;;;7.10;5.20;;;4.10;99.90;;;;;;5082869;28;20280;-76
2022/01/15 04:46:24;;;;;;;7.90;5.37;;;4.10;99.90;;;;;;5095554;28;20290;-73
2022/01/15 04:48:51;;;;;;;7.60;5.73;;;4.10;99.90;;;;;;5095089;28;20216;-73
2022/01/15 04:51:19;;;;;;;6.57;4.67;;;4.10;99.90;;;;;;5100967;28;20183;-76
2022/01/15 04:53:45;;;;;;;7.17;5.03;;;4.10;99.90;;;;;;5112201;27;20183;-75
2022/01/15 04:56:13;;;;;;;8.43;5.73;;;4.20;99.90;;;;;;5094901;28;20317;-76
2022/01/15 04:58:38;;;;;;;8.07;5.77;;;4.10;99.90;;;;;;5097789;28;20219;-74
2022/01/15 05:01:04;;;;;;;9.00;5.80;;;4.10;99.90;;;;;;5097610;28;20179;-76
2022/01/15 05:03:35;;;;;;;6.53;4.97;;;4.10;99.90;;;;;;5099970;28;20214;-72
2022/01/15 05:06:01;;;;;;;8.90;6.20;;;4.10;99.90;;;;;;5095082;28;20284;-71
2022/01/15 05:08:26;;;;;;;9.07;5.87;;;4.00;99.90;;;;;;5092888;28;20461;-71
2022/01/15 05:10:54;;;;;;;8.33;5.80;;;4.00;99.90;;;;;;5109216;28;20180;-73
2022/01/15 05:13:27;;;;;;;9.53;6.73;;;3.90;99.90;;;;;;5089725;28;20494;-75
2022/01/15 05:15:57;;;;;;;8.27;5.90;;;3.90;99.90;;;;;;5088597;28;20177;-76
2022/01/15 05:18:23;;;;;;;8.40;6.00;;;3.90;99.90;;;;;;5089934;28;20176;-76
2022/01/15 05:20:51;;;;;;;8.37;5.70;;;3.90;99.90;;;;;;5092713;28;20183;-73
2022/01/15 05:23:16;;;;;;;8.60;6.00;;;3.80;99.90;;;;;;5093206;28;20229;-76
2022/01/15 05:25:42;;;;;;;9.90;6.83;;;3.80;99.90;;;;;;5096285;28;20195;-76
2022/01/15 05:28:10;;;;;;;10.03;6.40;;;3.80;99.90;;;;;;5090271;28;20219;-75
2022/01/15 05:30:40;;;;;;;8.90;6.03;;;3.80;99.90;;;;;;5094158;28;20177;-75
2022/01/15 05:33:06;;;;;;;7.93;5.60;;;3.80;99.90;;;;;;5093602;28;20187;-76
2022/01/15 05:35:32;;;;;;;8.37;5.33;;;3.80;99.90;;;;;;5094384;28;20184;-75
2022/01/15 05:37:59;;;;;;;7.97;5.47;;;3.80;99.90;;;;;;5096473;28;20179;-75
2022/01/15 05:40:27;;;;;;;8.47;5.90;;;3.80;99.90;;;;;;5095236;28;23529;-73
2022/01/15 05:42:53;;;;;;;6.73;5.13;;;3.80;99.90;;;;;;5094215;28;20176;-69
2022/01/15 05:45:21;;;;;;;7.63;5.07;;;3.80;99.90;;;;;;5090469;28;20183;-76
2022/01/15 05:47:47;;;;;;;8.07;5.20;;;3.80;99.90;;;;;;5094799;28;20241;-74
2022/01/15 05:50:14;;;;;;;7.20;5.13;;;3.80;99.90;;;;;;5106074;28;20172;-74
2022/01/15 05:52:40;;;;;;;7.90;5.90;;;3.90;99.90;;;;;;5090785;28;20180;-76
2022/01/15 05:55:07;;;;;;;7.63;5.47;;;3.90;99.90;;;;;;5099209;28;20172;-74
2022/01/15 05:57:32;;;;;;;8.10;6.00;;;3.90;99.90;;;;;;5115207;27;20183;-70
2022/01/15 06:00:03;;;;;;;7.53;5.30;;;3.90;99.90;;;;;;5096973;28;20220;-77
2022/01/15 06:02:33;;;;;;;6.67;4.63;;;3.90;99.90;;;;;;5098880;28;20233;-76
2022/01/15 06:04:59;;;;;;;8.10;5.30;;;3.90;99.90;;;;;;5093666;28;20222;-76
2022/01/15 06:07:24;;;;;;;7.03;5.00;;;3.90;99.90;;;;;;5094304;28;20359;-76
2022/01/15 06:09:52;;;;;;;6.33;4.90;;;3.90;99.90;;;;;;5093992;28;20172;-76
2022/01/15 06:12:28;;;;;;;7.37;4.53;;;3.90;99.90;;;;;;5106010;28;20179;-73
2022/01/15 06:14:53;;;;;;;6.10;4.43;;;4.00;99.90;;;;;;5099724;28;20199;-75
2022/01/15 06:17:21;;;;;;;6.00;4.70;;;4.00;99.90;;;;;;5094726;28;20183;-76
2022/01/15 06:19:49;;;;;;;8.63;6.10;;;4.00;99.90;;;;;;5094927;28;20191;-75
2022/01/15 06:22:17;;;;;;;8.90;6.30;;;4.00;99.90;;;;;;5094664;28;20545;-76
2022/01/15 06:24:42;;;;;;;7.13;5.80;;;4.00;99.90;;;;;;5094809;28;20199;-72
2022/01/15 06:27:11;;;;;;;6.73;5.10;;;3.90;99.90;;;;;;5094689;28;20220;-72
2022/01/15 06:29:42;;;;;;;6.57;4.63;;;3.90;99.90;;;;;;5085568;28;20203;-71
2022/01/15 06:32:12;;;;;;;6.33;5.03;;;3.90;99.90;;;;;;5090228;28;20207;-75
2022/01/15 06:34:41;;;;;;;6.77;5.27;;;3.90;99.90;;;;;;5086897;28;20290;-73
2022/01/15 06:37:09;;;;;;;6.03;4.70;;;3.90;99.90;;;;;;5089782;28;20191;-67
2022/01/15 06:39:35;;;;;;;6.63;4.83;;;3.90;99.90;;;;;;5090546;28;20180;-63
2022/01/15 06:42:05;;;;;;;6.17;4.60;;;4.00;99.90;;;;;;5099943;28;20265;-75
2022/01/15 06:44:33;;;;;;;7.90;6.07;;;4.00;99.90;;;;;;5105200;28;20183;-73
2022/01/15 06:46:58;;;;;;;7.87;5.23;;;3.90;99.90;;;;;;5101216;27;20208;-73
2022/01/15 06:49:26;;;;;;;6.50;5.17;;;4.00;99.90;;;;;;5092585;28;20179;-74
2022/01/15 06:51:56;;;;;;;6.63;4.93;;;3.90;99.90;;;;;;5094700;28;20292;-76
2022/01/15 06:54:25;;;;;;;6.60;4.97;;;4.00;99.90;;;;;;5087157;28;20214;-72
2022/01/15 06:56:52;;;;;;;6.87;5.37;;;4.00;99.90;;;;;;5097050;28;20186;-75
2022/01/15 06:59:18;;;;;;;6.17;4.80;;;3.90;99.90;;;;;;5097864;28;20184;-75
2022/01/15 07:01:43;;;;;;;6.27;4.63;;;3.90;99.90;;;;;;5094561;28;20742;-75
2022/01/15 07:04:12;;;;;;;7.37;5.50;;;3.90;99.90;;;;;;5115572;27;20194;-74
2022/01/15 07:06:37;;;;;;;6.87;5.10;;;3.90;99.90;;;;;;5093493;28;20214;-75
2022/01/15 07:09:03;;;;;;;7.63;5.63;;;3.90;99.90;;;;;;5094920;28;20176;-72
2022/01/15 07:11:29;;;;;;;7.33;5.77;;;3.90;99.90;;;;;;5083085;28;20191;-76
2022/01/15 07:13:56;;;;;;;7.73;5.37;;;3.90;99.90;;;;;;5092737;28;20229;-70
2022/01/15 07:16:25;;;;;;;5.80;4.90;;;3.80;99.90;;;;;;5086653;28;20274;-74
2022/01/15 07:18:53;;;;;;;5.73;4.47;;;3.90;99.90;;;;;;5086831;28;20188;-75
2022/01/15 07:21:21;;;;;;;6.30;4.87;;;3.90;99.90;;;;;;5093482;28;20176;-73
2022/01/15 07:23:49;;;;;;;5.80;4.43;;;3.90;99.90;;;;;;5089690;28;20180;-75
2022/01/15 07:26:17;;;;;;;5.23;4.23;;;3.90;99.90;;;;;;5089478;28;20326;-76
2022/01/15 07:28:43;;;;;;;5.17;3.80;;;3.90;99.90;;;;;;5095186;28;20206;-72
2022/01/15 07:31:13;;;;;;;5.53;4.20;;;3.90;99.90;;;;;;5093339;28;20172;-71
2022/01/15 07:33:39;;;;;;;5.80;4.43;;;3.90;99.90;;;;;;5091500;28;20216;-74
2022/01/15 07:36:07;;;;;;;6.27;4.27;;;3.90;99.90;;;;;;5079091;28;20219;-74
2022/01/15 07:38:34;;;;;;;6.10;4.83;;;3.90;99.90;;;;;;5092701;28;20180;-74
2022/01/15 07:41:02;;;;;;;5.70;4.60;;;3.90;99.90;;;;;;5089953;28;20186;-70
2022/01/15 07:43:27;;;;;;;5.83;4.73;;;3.90;99.90;;;;;;5095863;28;20287;-76
2022/01/15 07:45:55;;;;;;;6.97;4.87;;;3.90;99.90;;;;;;5089587;28;20195;-75
2022/01/15 07:48:26;;;;;;;5.90;4.40;;;3.90;99.90;;;;;;5088221;28;20237;-73
2022/01/15 07:50:55;;;;;;;7.27;5.67;;;3.90;99.90;;;;;;5102217;28;20196;-75
2022/01/15 07:53:20;;;;;;;5.27;4.67;;;3.90;99.90;;;;;;5080914;28;20205;-76
2022/01/15 07:55:46;;;;;;;6.33;5.10;;;3.90;99.90;;;;;;5098040;28;20180;-76
2022/01/15 07:58:14;;;;;;;5.80;4.23;;;3.90;99.90;;;;;;5098593;28;20201;-75
2022/01/15 08:00:44;;;;;;;5.00;4.20;;;4.00;99.90;;;;;;5100588;28;20217;-68
2022/01/15 08:03:12;;;;;;;5.60;4.33;;;4.00;99.90;;;;;;5098123;28;20190;-68
2022/01/15 08:05:37;;;;;;;4.80;3.90;;;4.00;99.90;;;;;;5092663;28;20206;-69
2022/01/15 08:08:03;;;;;;;5.43;4.20;;;4.00;99.90;;;;;;5109313;28;20195;-73
2022/01/15 08:10:29;;;;;;;4.87;4.20;;;4.00;99.90;;;;;;5100935;28;20457;-75
2022/01/15 08:12:55;;;;;;;4.63;4.00;;;4.00;99.90;;;;;;5096365;28;20282;-70
2022/01/15 08:15:21;;;;;;;5.23;4.20;;;4.00;99.90;;;;;;5096630;28;20267;-70
2022/01/15 08:17:47;;;;;;;5.47;4.10;;;4.00;99.90;;;;;;5102254;28;20191;-73
2022/01/15 08:20:16;;;;;;;6.43;4.50;;;4.10;99.90;;;;;;5113890;27;20180;-75
2022/01/15 08:22:42;;;;;;;4.57;3.60;;;4.10;99.90;;;;;;5090814;28;20187;-75
2022/01/15 08:25:09;;;;;;;5.50;4.30;;;4.10;99.90;;;;;;5093383;28;20200;-74
2022/01/15 08:27:37;;;;;;;5.40;4.00;;;4.10;99.90;;;;;;5096169;28;20256;-72
2022/01/15 08:30:05;;;;;;;5.30;4.30;;;4.10;99.90;;;;;;5097941;28;20278;-74
2022/01/15 08:32:33;;;;;;;5.27;3.80;;;4.10;99.90;;;;;;5094700;28;20187;-75
2022/01/15 08:34:58;;;;;;;4.13;3.60;;;4.10;99.90;;;;;;5097968;28;20167;-76
2022/01/15 08:37:26;;;;;;;5.03;3.73;;;4.10;99.90;;;;;;5100455;28;20234;-71
2022/01/15 08:39:55;;;;;;;4.87;3.80;;;4.20;99.90;;;;;;5101126;28;20185;-74
2022/01/15 08:42:23;;;;;;;4.93;3.87;;;4.20;99.90;;;;;;5096912;28;20267;-72
2022/01/15 08:44:54;;;;;;;5.13;4.27;;;4.20;99.90;;;;;;5094771;28;20232;-75
2022/01/15 08:47:24;;;;;;;5.50;4.20;;;4.30;99.90;;;;;;5096468;28;20211;-76
2022/01/15 08:49:53;;;;;;;4.10;3.53;;;4.30;99.90;;;;;;5101532;27;20208;-76
2022/01/15 08:52:24;;;;;;;3.97;3.50;;;4.30;99.90;;;;;;5095043;28;20172;-76
2022/01/15 08:54:52;;;;;;;4.70;3.80;;;4.30;99.90;;;;;;5095640;28;20196;-77
2022/01/15 08:57:18;;;;;;;4.53;4.00;;;4.30;99.90;;;;;;5092760;28;20173;-72
2022/01/15 08:59:43;;;;;;;4.53;3.90;;;4.30;99.90;;;;;;5096575;28;20491;-77
2022/01/15 09:02:12;;;;;;;4.70;4.10;;;4.40;99.90;;;;;;5084784;28;20441;-70
2022/01/15 09:04:40;;;;;;;4.90;3.60;;;4.40;99.90;;;;;;5108867;28;20239;-75
2022/01/15 09:07:08;;;;;;;4.33;3.63;;;4.40;99.90;;;;;;5111589;28;20219;-75
2022/01/15 09:09:33;;;;;;;5.13;3.70;;;4.40;99.90;;;;;;5111373;27;20205;-72
2022/01/15 09:12:01;;;;;;;4.53;3.63;;;4.40;99.90;;;;;;5097183;28;20180;-77
2022/01/15 09:14:29;;;;;;;5.63;4.70;;;4.50;99.90;;;;;;5096191;28;20184;-77
2022/01/15 09:16:55;;;;;;;4.53;3.50;;;4.50;99.90;;;;;;5098705;28;20184;-74
2022/01/15 09:19:22;;;;;;;6.00;4.17;;;4.40;99.90;;;;;;5094258;28;20588;-76
2022/01/15 09:21:55;;;;;;;4.27;3.67;;;4.50;99.90;;;;;;5095142;28;20176;-77
2022/01/15 09:24:21;;;;;;;4.43;3.80;;;4.50;99.90;;;;;;5094642;28;20172;-77
2022/01/15 09:26:59;;;;;;;5.27;4.47;;;4.40;99.90;;;;;;5092941;28;20356;-75
2022/01/15 09:32:09;;;;;;;4.73;4.20;;;4.40;99.90;;;;;;5105624;28;20188;-77
2022/01/15 09:34:36;;;;;;;5.20;4.50;;;4.40;99.90;;;;;;5098778;28;20258;-72
2022/01/15 09:37:04;;;;;;;4.83;3.87;;;4.40;99.90;;;;;;5095493;28;20180;-73
2022/01/15 09:39:35;;;;;;;6.10;4.53;;;4.40;99.90;;;;;;5097032;28;20204;-76
2022/01/15 09:42:01;;;;;;;5.27;4.20;;;4.40;99.90;;;;;;5094476;28;20176;-78
2022/01/15 09:44:31;;;;;;;5.40;4.40;;;4.40;99.90;;;;;;5092546;28;20191;-76
2022/01/15 09:46:57;;;;;;;4.87;4.03;;;4.40;99.90;;;;;;5094549;28;20505;-77
2022/01/15 09:49:25;;;;;;;5.23;4.20;;;4.40;99.90;;;;;;5094579;28;20220;-75
2022/01/15 09:51:51;;;;;;;5.43;4.23;;;4.40;99.90;;;;;;5090375;28;20187;-71
2022/01/15 09:54:19;;;;;;;5.67;4.50;;;4.40;99.90;;;;;;5092782;28;20187;-76
2022/01/15 09:56:49;;;;;;;7.60;4.87;;;4.40;99.90;;;;;;5102383;27;20295;-77
2022/01/15 09:59:17;;;;;;;6.27;5.10;;;4.50;99.90;;;;;;5092718;28;20168;-74
2022/01/15 10:01:45;;;;;;;5.47;4.57;;;4.40;99.90;;;;;;5093797;28;20184;-76
2022/01/15 10:04:15;;;;;;;4.97;4.20;;;4.50;99.90;;;;;;5088373;28;20179;-78
2022/01/15 10:07:11;;;;;;;5.93;4.80;;;4.50;99.90;;;;;;5090663;28;20249;-79
2022/01/15 10:09:43;;;;;;;6.30;4.90;;;4.50;99.90;;;;;;5103455;28;20181;-74
2022/01/15 10:12:10;;;;;;;5.60;4.63;;;4.50;99.90;;;;;;5097037;28;20191;-76
2022/01/15 10:14:41;;;;;;;6.03;4.70;;;4.50;99.90;;;;;;5094212;28;20191;-76
2022/01/15 10:17:27;;;;;;;5.53;4.83;;;4.60;99.90;;;;;;5090438;28;20229;-72
2022/01/15 10:19:57;;;;;;;5.30;4.57;;;4.60;99.90;;;;;;5088596;28;20172;-77
2022/01/15 10:22:24;;;;;;;5.67;4.70;;;4.60;99.90;;;;;;5093787;28;20208;-77
2022/01/15 10:25:03;;;;;;;5.87;4.17;;;4.60;99.90;;;;;;5095804;28;20190;-78
2022/01/15 10:27:35;;;;;;;5.30;4.73;;;4.70;99.90;;;;;;5094079;28;20260;-71
2022/01/15 10:30:01;;;;;;;4.97;4.30;;;4.70;99.90;;;;;;5091380;28;20172;-71
2022/01/15 10:32:29;;;;;;;6.37;5.20;;;4.70;99.90;;;;;;5091844;28;20233;-77
2022/01/15 10:34:55;;;;;;;4.93;4.13;;;4.80;99.90;;;;;;5098149;28;20398;-71
2022/01/15 10:37:35;;;;;;;6.67;4.30;;;4.80;99.90;;;;;;5098495;28;20422;-73
2022/01/15 10:40:10;;;;;;;5.90;4.00;;;4.90;99.90;;;;;;5097147;28;20195;-77
2022/01/15 10:42:36;;;;;;;4.73;4.10;;;5.00;99.90;;;;;;5120728;27;20176;-76
2022/01/15 10:45:16;;;;;;;7.30;5.27;;;5.00;99.90;;;;;;5103479;28;20225;-71
2022/01/15 10:47:47;;;;;;;5.50;4.73;;;5.10;99.90;;;;;;5101875;28;20252;-76
2022/01/15 10:50:33;;;;;;;6.77;5.00;;;5.10;99.90;;;;;;5091060;28;20186;-76
2022/01/15 10:53:10;;;;;;;6.03;4.70;;;5.10;99.90;;;;;;5089878;28;20271;-73
2022/01/15 10:55:39;;;;;;;5.10;4.57;;;5.10;99.90;;;;;;5086158;28;20175;-76
2022/01/15 10:58:11;;;;;;;5.37;4.47;;;5.10;99.90;;;;;;5104010;27;20279;-74
2022/01/15 11:00:37;;;;;;;5.27;4.50;;;5.10;99.90;;;;;;5094063;28;20191;-76
2022/01/15 11:03:14;;;;;;;4.67;3.87;;;5.10;99.90;;;;;;5095577;28;20208;-72
2022/01/15 11:05:45;;;;;;;4.60;3.63;;;5.10;99.90;;;;;;5088913;28;20213;-76
2022/01/15 11:08:27;;;;;;;4.77;4.07;;;5.10;99.90;;;;;;5104626;28;20203;-75
2022/01/15 11:10:54;;;;;;;5.20;4.30;;;5.10;99.90;;;;;;5091867;28;20252;-72
2022/01/15 11:13:24;;;;;;;5.27;4.50;;;5.10;99.90;;;;;;5092496;28;20317;-76
2022/01/15 11:15:54;;;;;;;4.30;3.67;;;5.10;99.90;;;;;;5094490;28;20248;-71
2022/01/15 11:18:25;;;;;;;7.40;4.40;;;5.10;99.90;;;;;;5094216;28;20204;-76
2022/01/15 11:20:53;;;;;;;6.83;4.90;;;5.10;99.90;;;;;;5094932;28;20179;-74
2022/01/15 11:23:21;;;;;;;5.93;4.83;;;5.10;99.90;;;;;;5108108;27;20182;-76
2022/01/15 11:25:48;;;;;;;6.53;4.57;;;5.10;99.90;;;;;;5094040;28;20184;-68
2022/01/15 11:28:21;;;;;;;4.53;4.13;;;5.10;99.90;;;;;;5092914;28;20199;-76
2022/01/15 11:30:49;;;;;;;6.97;4.33;;;5.10;99.90;;;;;;5088103;28;20221;-76
2022/01/15 11:33:20;;;;;;;5.10;4.23;;;5.10;99.90;;;;;;5089276;28;20249;-72
2022/01/15 11:35:46;;;;;;;5.60;4.73;;;5.10;99.90;;;;;;5092468;28;20168;-72
2022/01/15 11:38:43;;;;;;;4.97;4.30;;;5.10;99.90;;;;;;5092669;28;20337;-73
2022/01/15 11:41:27;;;;;;;4.67;3.70;;;5.10;99.90;;;;;;5086166;28;20229;-75
2022/01/15 11:44:06;;;;;;;4.30;3.30;;;5.20;99.90;;;;;;5096183;28;20268;-75
2022/01/15 11:46:33;;;;;;;5.50;3.93;;;5.20;99.90;;;;;;5092250;28;20199;-68
2022/01/15 11:49:24;;;;;;;4.77;4.00;;;5.20;99.90;;;;;;5095671;28;20159;-74
2022/01/15 11:51:55;;;;;;;5.17;4.40;;;5.30;99.90;;;;;;5108545;28;20210;-72
2022/01/15 11:54:20;;;;;;;4.20;3.70;;;5.30;99.90;;;;;;5085614;28;20222;-75
2022/01/15 11:56:49;;;;;;;5.07;3.60;;;5.30;99.90;;;;;;5096163;28;20195;-76
2022/01/15 11:59:26;;;;;;;4.30;3.80;;;5.30;99.90;;;;;;5096475;28;20263;-75
2022/01/15 12:01:55;;;;;;;4.93;4.20;;;5.30;99.90;;;;;;5097280;28;20357;-76
2022/01/15 12:04:28;;;;;;;5.67;4.40;;;5.30;99.90;;;;;;5093097;28;20190;-76
2022/01/15 12:07:16;;;;;;;4.87;4.20;;;5.30;99.90;;;;;;5097584;28;20199;-76
2022/01/15 12:09:48;;;;;;;5.93;4.47;;;5.30;99.90;;;;;;5094009;28;20199;-74
2022/01/15 12:15:03;;;;;;;4.60;3.83;;;5.30;99.90;;;;;;5097197;28;20184;-76
2022/01/15 12:17:31;;;;;;;5.50;4.57;;;5.30;99.90;;;;;;5098154;28;20191;-72
2022/01/15 12:19:59;;;;;;;4.97;4.40;;;5.30;99.90;;;;;;5095405;28;20208;-75
2022/01/15 12:22:36;;;;;;;5.93;4.83;;;5.30;99.90;;;;;;5094313;28;20200;-73
2022/01/15 12:25:06;;;;;;;6.17;4.73;;;5.40;99.90;;;;;;5095753;28;20191;-75
2022/01/15 12:27:35;;;;;;;4.63;4.10;;;5.40;99.90;;;;;;5096174;28;20204;-73
2022/01/15 12:30:07;;;;;;;4.63;3.90;;;5.40;99.90;;;;;;5097790;28;20192;-76
2022/01/15 12:32:39;;;;;;;4.80;4.23;;;5.40;99.90;;;;;;5097470;28;20188;-72
2022/01/15 12:35:15;;;;;;;4.87;4.17;;;5.40;99.90;;;;;;5100402;28;20203;-76
2022/01/15 12:37:53;;;;;;;4.43;3.53;;;5.50;99.90;;;;;;5096077;28;20222;-75
2022/01/15 12:40:22;;;;;;;4.53;4.03;;;5.50;99.90;;;;;;5099170;28;20187;-74
2022/01/15 12:42:59;;;;;;;4.33;3.90;;;5.50;99.90;;;;;;5098286;28;20188;-75
2022/01/15 12:45:28;;;;;;;4.47;3.70;;;5.50;99.90;;;;;;5094218;28;20324;-75
2022/01/15 12:47:55;;;;;;;4.27;3.87;;;5.50;99.90;;;;;;5096336;28;20199;-76
2022/01/15 12:50:26;;;;;;;5.07;3.97;;;5.50;99.90;;;;;;5102479;28;20188;-76
2022/01/15 12:53:00;;;;;;;5.37;4.33;;;5.50;99.90;;;;;;5103247;27;20176;-70
2022/01/15 12:55:36;;;;;;;5.40;4.37;;;5.50;99.90;;;;;;5085870;28;20415;-76
2022/01/15 12:58:04;;;;;;;6.63;4.07;;;5.50;99.90;;;;;;5094632;28;20187;-77
2022/01/15 13:00:38;;;;;;;4.87;4.17;;;5.60;99.90;;;;;;5094034;28;20298;-78
2022/01/15 13:03:09;;;;;;;5.50;4.50;;;5.60;99.90;;;;;;5104843;28;20192;-73
2022/01/15 13:05:40;;;;;;;5.77;4.27;;;5.60;99.90;;;;;;5097501;28;20226;-71
2022/01/15 13:08:21;;;;;;;4.70;4.07;;;5.60;99.90;;;;;;5094355;28;20234;-76
2022/01/15 13:10:57;;;;;;;5.10;4.10;;;5.60;99.90;;;;;;5094398;28;20267;-75
2022/01/15 13:13:30;;;;;;;4.43;4.03;;;5.60;99.90;;;;;;5091566;28;20227;-74
2022/01/15 13:16:02;;;;;;;4.47;3.97;;;5.60;99.90;;;;;;5095547;28;20213;-72
2022/01/15 13:18:34;;;;;;;4.20;3.80;;;5.60;99.90;;;;;;5094122;28;20191;-77
2022/01/15 13:21:03;;;;;;;4.50;3.67;;;5.60;99.90;;;;;;5089980;28;20240;-74
2022/01/15 13:23:36;;;;;;;6.47;4.83;;;5.60;99.90;;;;;;5092865;28;20249;-74
2022/01/15 13:26:03;;;;;;;4.80;4.30;;;5.70;99.90;;;;;;5095623;28;20274;-69
2022/01/15 13:28:29;;;;;;;4.97;4.30;;;5.70;99.90;;;;;;5097036;28;20253;-72